sensor_id;sensor_type;location;lat;lon;timestamp;pressure;altitude;pressure_sealevel;temperature;humidity
20015;BME280;61787;42.022;23.078;2023-02-18T00:00:45;97726.56;;;3.96;68.89
20015;BME280;61787;42.022;23.078;2023-02-18T00:01:46;97722.59;;;3.98;68.80
20015;BME280;61787;42.022;23.078;2023-02-18T00:02:48;97717.28;;;3.98;69.20
20015;BME280;61787;42.022;23.078;2023-02-18T00:03:53;97719.38;;;4.01;68.44
20015;BME280;61787;42.022;23.078;2023-02-18T00:04:54;97717.53;;;4.02;68.68
20015;BME280;61787;42.022;23.078;2023-02-18T00:05:56;97719.13;;;4.03;68.66
20015;BME280;61787;42.022;23.078;2023-02-18T00:06:58;97723.88;;;4.06;68.74
20015;BME280;61787;42.022;23.078;2023-02-18T00:07:59;97720.16;;;4.07;68.84
20015;BME280;61787;42.022;23.078;2023-02-18T00:09:02;97714.88;;;4.07;68.82
20015;BME280;61787;42.022;23.078;2023-02-18T00:10:08;97715.66;;;4.07;68.00
20015;BME280;61787;42.022;23.078;2023-02-18T00:11:11;97706.91;;;4.07;68.49
20015;BME280;61787;42.022;23.078;2023-02-18T00:12:13;97707.97;;;3.96;68.70
20015;BME280;61787;42.022;23.078;2023-02-18T00:13:14;97711.19;;;3.93;68.93
20015;BME280;61787;42.022;23.078;2023-02-18T00:14:16;97710.63;;;3.91;68.77
20015;BME280;61787;42.022;23.078;2023-02-18T00:15:18;97704.53;;;3.90;69.10
20015;BME280;61787;42.022;23.078;2023-02-18T00:16:20;97705.34;;;3.91;68.68
20015;BME280;61787;42.022;23.078;2023-02-18T00:17:23;97706.94;;;3.92;68.96
20015;BME280;61787;42.022;23.078;2023-02-18T00:18:24;97706.94;;;3.92;68.33
20015;BME280;61787;42.022;23.078;2023-02-18T00:19:26;97709.06;;;3.90;67.92
20015;BME280;61787;42.022;23.078;2023-02-18T00:20:28;97711.19;;;3.88;68.10
20015;BME280;61787;42.022;23.078;2023-02-18T00:21:31;97712.25;;;3.86;68.61
20015;BME280;61787;42.022;23.078;2023-02-18T00:22:34;97706.69;;;3.88;67.99
20015;BME280;61787;42.022;23.078;2023-02-18T00:23:35;97712.25;;;3.86;68.15
20015;BME280;61787;42.022;23.078;2023-02-18T00:24:37;97705.63;;;3.84;68.89
20015;BME280;61787;42.022;23.078;2023-02-18T00:25:39;97706.94;;;3.81;68.91
20015;BME280;61787;42.022;23.078;2023-02-18T00:26:41;97707.50;;;3.78;68.87
20015;BME280;61787;42.022;23.078;2023-02-18T00:27:42;97709.09;;;3.74;68.85
20015;BME280;61787;42.022;23.078;2023-02-18T00:28:44;97709.59;;;3.71;69.30
20015;BME280;61787;42.022;23.078;2023-02-18T00:29:46;97710.94;;;3.54;69.37
20015;BME280;61787;42.022;23.078;2023-02-18T00:30:47;97713.59;;;3.38;70.77
20015;BME280;61787;42.022;23.078;2023-02-18T00:31:49;97706.69;;;3.37;71.12
20015;BME280;61787;42.022;23.078;2023-02-18T00:32:50;97712.25;;;3.41;71.01
20015;BME280;61787;42.022;23.078;2023-02-18T00:33:52;97712.25;;;3.41;71.13
20015;BME280;61787;42.022;23.078;2023-02-18T00:34:54;97713.84;;;3.32;71.49
20015;BME280;61787;42.022;23.078;2023-02-18T00:36:03;97709.34;;;3.22;71.86
20015;BME280;61787;42.022;23.078;2023-02-18T00:37:06;97713.84;;;3.22;71.66
20015;BME280;61787;42.022;23.078;2023-02-18T00:38:08;97706.41;;;3.24;71.40
20015;BME280;61787;42.022;23.078;2023-02-18T00:39:10;97708.53;;;3.27;71.20
20015;BME280;61787;42.022;23.078;2023-02-18T00:40:12;97701.09;;;3.29;71.62
20015;BME280;61787;42.022;23.078;2023-02-18T00:41:14;97701.38;;;3.32;71.05
20015;BME280;61787;42.022;23.078;2023-02-18T00:42:15;97702.69;;;3.35;71.35
20015;BME280;61787;42.022;23.078;2023-02-18T00:43:17;97696.09;;;3.37;71.22
20015;BME280;61787;42.022;23.078;2023-02-18T00:44:19;97697.69;;;3.38;70.77
20015;BME280;61787;42.022;23.078;2023-02-18T00:45:20;97698.75;;;3.42;70.89
20015;BME280;61787;42.022;23.078;2023-02-18T00:46:23;97700.34;;;3.43;70.39
20015;BME280;61787;42.022;23.078;2023-02-18T00:47:25;97686.81;;;3.45;70.53
20015;BME280;61787;42.022;23.078;2023-02-18T00:48:27;97688.13;;;3.42;70.78
20015;BME280;61787;42.022;23.078;2023-02-18T00:49:28;97690.25;;;3.35;70.93
20015;BME280;61787;42.022;23.078;2023-02-18T00:50:30;97683.63;;;3.33;71.52
20015;BME280;61787;42.022;23.078;2023-02-18T00:51:32;97692.09;;;3.30;71.41
20015;BME280;61787;42.022;23.078;2023-02-18T00:52:34;97688.38;;;3.26;71.60
20015;BME280;61787;42.022;23.078;2023-02-18T00:53:36;97689.69;;;3.23;71.92
20015;BME280;61787;42.022;23.078;2023-02-18T00:54:38;97684.69;;;3.17;72.68
20015;BME280;61787;42.022;23.078;2023-02-18T00:55:43;97686.25;;;3.03;73.38
20015;BME280;61787;42.022;23.078;2023-02-18T00:56:45;97684.34;;;2.83;74.42
20015;BME280;61787;42.022;23.078;2023-02-18T00:57:47;97686.13;;;2.67;75.00
20015;BME280;61787;42.022;23.078;2023-02-18T00:58:49;97685.03;;;2.48;76.08
20015;BME280;61787;42.022;23.078;2023-02-18T00:59:51;97677.50;;;2.20;77.98
20015;BME280;61787;42.022;23.078;2023-02-18T01:00:53;97678.22;;;2.05;78.69
20015;BME280;61787;42.022;23.078;2023-02-18T01:01:55;97675.84;;;2.03;78.82
20015;BME280;61787;42.022;23.078;2023-02-18T01:02:56;97671.50;;;1.87;79.14
20015;BME280;61787;42.022;23.078;2023-02-18T01:03:58;97666.16;;;1.77;79.86
20015;BME280;61787;42.022;23.078;2023-02-18T01:04:59;97664.78;;;1.69;80.30
20015;BME280;61787;42.022;23.078;2023-02-18T01:06:02;97666.56;;;1.59;80.48
20015;BME280;61787;42.022;23.078;2023-02-18T01:07:03;97671.03;;;1.53;80.92
20015;BME280;61787;42.022;23.078;2023-02-18T01:08:06;97661.50;;;1.52;80.74
20015;BME280;61787;42.022;23.078;2023-02-18T01:09:08;97663.69;;;1.65;80.38
20015;BME280;61787;42.022;23.078;2023-02-18T01:10:10;97660.88;;;1.77;80.22
20015;BME280;61787;42.022;23.078;2023-02-18T01:11:12;97650.91;;;1.89;79.29
20015;BME280;61787;42.022;23.078;2023-02-18T01:12:14;97648.81;;;1.96;79.00
20015;BME280;61787;42.022;23.078;2023-02-18T01:13:16;97649.88;;;2.00;78.80
20015;BME280;61787;42.022;23.078;2023-02-18T01:14:18;97646.75;;;2.03;78.62
20015;BME280;61787;42.022;23.078;2023-02-18T01:15:20;97636.69;;;2.05;78.65
20015;BME280;61787;42.022;23.078;2023-02-18T01:16:22;97636.72;;;2.15;78.38
20015;BME280;61787;42.022;23.078;2023-02-18T01:17:24;97639.69;;;2.24;77.63
20015;BME280;61787;42.022;23.078;2023-02-18T01:18:26;97640.53;;;2.35;77.47
20015;BME280;61787;42.022;23.078;2023-02-18T01:19:28;97638.97;;;2.44;76.63
20015;BME280;61787;42.022;23.078;2023-02-18T01:20:30;97640.84;;;2.53;75.90
20015;BME280;61787;42.022;23.078;2023-02-18T01:21:31;97632.66;;;2.60;75.54
20015;BME280;61787;42.022;23.078;2023-02-18T01:22:33;97634.00;;;2.68;75.12
20015;BME280;61787;42.022;23.078;2023-02-18T01:23:36;97638.00;;;2.75;74.57
20015;BME280;61787;42.022;23.078;2023-02-18T01:24:38;97632.44;;;2.82;74.19
20015;BME280;61787;42.022;23.078;2023-02-18T01:25:40;97630.84;;;2.86;74.20
20015;BME280;61787;42.022;23.078;2023-02-18T01:26:42;97627.41;;;2.90;73.55
20015;BME280;61787;42.022;23.078;2023-02-18T01:27:43;97632.72;;;2.95;73.56
20015;BME280;61787;42.022;23.078;2023-02-18T01:28:45;97623.44;;;2.98;73.77
20015;BME280;61787;42.022;23.078;2023-02-18T01:29:47;97624.78;;;3.00;73.48
20015;BME280;61787;42.022;23.078;2023-02-18T01:30:48;97626.09;;;3.03;72.64
20015;BME280;61787;42.022;23.078;2023-02-18T01:31:52;97629.81;;;3.02;72.87
20015;BME280;61787;42.022;23.078;2023-02-18T01:32:55;97626.09;;;3.03;72.32
20015;BME280;61787;42.022;23.078;2023-02-18T01:33:56;97620.03;;;3.03;72.44
20015;BME280;61787;42.022;23.078;2023-02-18T01:35:04;97624.53;;;3.07;72.16
20015;BME280;61787;42.022;23.078;2023-02-18T01:36:07;97625.59;;;3.06;71.68
20015;BME280;61787;42.022;23.078;2023-02-18T01:37:10;97615.78;;;3.07;72.08
20015;BME280;61787;42.022;23.078;2023-02-18T01:38:11;97618.44;;;3.07;72.42
20015;BME280;61787;42.022;23.078;2023-02-18T01:39:13;97621.88;;;3.07;72.18
20015;BME280;61787;42.022;23.078;2023-02-18T01:40:16;97615.78;;;3.07;72.72
20015;BME280;61787;42.022;23.078;2023-02-18T01:41:19;97618.16;;;3.08;72.48
20015;BME280;61787;42.022;23.078;2023-02-18T01:42:24;97615.78;;;3.07;72.82
20015;BME280;61787;42.022;23.078;2023-02-18T01:43:26;97606.22;;;3.00;72.59
20015;BME280;61787;42.022;23.078;2023-02-18T01:44:28;97606.47;;;2.89;72.87
20015;BME280;61787;42.022;23.078;2023-02-18T01:46:35;97609.31;;;2.52;74.96
20015;BME280;61787;42.022;23.078;2023-02-18T01:47:37;97612.69;;;2.27;76.21
20015;BME280;61787;42.022;23.078;2023-02-18T01:48:42;97617.91;;;2.07;77.46
20015;BME280;61787;42.022;23.078;2023-02-18T01:49:47;97617.59;;;1.93;78.38
20015;BME280;61787;42.022;23.078;2023-02-18T01:52:08;97612.66;;;1.60;80.02
20015;BME280;61787;42.022;23.078;2023-02-18T01:53:14;97619.81;;;1.64;80.46
20015;BME280;61787;42.022;23.078;2023-02-18T01:55:20;97613.84;;;1.84;79.83
20015;BME280;61787;42.022;23.078;2023-02-18T01:58:13;97614.50;;;2.11;77.91
20015;BME280;61787;42.022;23.078;2023-02-18T01:59:20;97615.06;;;2.19;77.76
20015;BME280;61787;42.022;23.078;2023-02-18T02:00:24;97615.63;;;2.26;77.19
20015;BME280;61787;42.022;23.078;2023-02-18T02:01:26;97616.97;;;2.33;76.86
20015;BME280;61787;42.022;23.078;2023-02-18T02:02:29;97616.72;;;2.40;76.50
20015;BME280;61787;42.022;23.078;2023-02-18T02:03:32;97616.44;;;2.36;75.52
20015;BME280;61787;42.022;23.078;2023-02-18T02:04:33;97620.63;;;2.27;75.45
20015;BME280;61787;42.022;23.078;2023-02-18T02:05:35;97613.22;;;2.24;75.31
20015;BME280;61787;42.022;23.078;2023-02-18T02:06:37;97618.28;;;2.31;75.35
20015;BME280;61787;42.022;23.078;2023-02-18T02:07:40;97614.06;;;2.35;74.86
20015;BME280;61787;42.022;23.078;2023-02-18T02:08:43;97617.25;;;2.47;74.17
20015;BME280;61787;42.022;23.078;2023-02-18T02:09:47;97620.41;;;2.39;75.12
20015;BME280;61787;42.022;23.078;2023-02-18T02:11:03;97618.28;;;2.31;75.36
20015;BME280;61787;42.022;23.078;2023-02-18T02:12:34;97623.59;;;2.31;75.57
20015;BME280;61787;42.022;23.078;2023-02-18T02:15:37;97623.06;;;2.34;75.36
20015;BME280;61787;42.022;23.078;2023-02-18T02:25:54;97643.63;;;1.27;79.79
20015;BME280;61787;42.022;23.078;2023-02-18T02:27:14;97641.66;;;1.13;80.22
20015;BME280;61787;42.022;23.078;2023-02-18T02:33:02;97640.53;;;0.77;82.57
20015;BME280;61787;42.022;23.078;2023-02-18T02:35:53;97643.94;;;0.77;83.14
20015;BME280;61787;42.022;23.078;2023-02-18T02:37:30;97642.63;;;0.75;83.27
20015;BME280;61787;42.022;23.078;2023-02-18T02:39:02;97647.56;;;0.66;82.98
20015;BME280;61787;42.022;23.078;2023-02-18T02:40:22;97652.56;;;0.68;84.14
20015;BME280;61787;42.022;23.078;2023-02-18T02:45:18;97654.28;;;0.79;83.46
20015;BME280;61787;42.022;23.078;2023-02-18T02:46:28;97651.63;;;0.79;83.14
20015;BME280;61787;42.022;23.078;2023-02-18T02:47:43;97652.75;;;0.88;83.01
20015;BME280;61787;42.022;23.078;2023-02-18T02:49:06;97651.72;;;0.89;83.73
20015;BME280;61787;42.022;23.078;2023-02-18T02:50:15;97651.78;;;0.94;83.65
20015;BME280;61787;42.022;23.078;2023-02-18T02:51:29;97664.50;;;0.97;83.41
20015;BME280;61787;42.022;23.078;2023-02-18T02:52:37;97652.41;;;1.06;83.55
20015;BME280;61787;42.022;23.078;2023-02-18T02:53:42;97658.31;;;1.18;82.60
20015;BME280;61787;42.022;23.078;2023-02-18T02:54:44;97658.41;;;1.28;82.09
20015;BME280;61787;42.022;23.078;2023-02-18T02:55:46;97658.44;;;1.34;81.49
20015;BME280;61787;42.022;23.078;2023-02-18T02:56:47;97660.50;;;1.26;81.61
20015;BME280;61787;42.022;23.078;2023-02-18T02:57:53;97663.63;;;1.23;81.47
20015;BME280;61787;42.022;23.078;2023-02-18T02:59:01;97659.38;;;1.17;81.03
20015;BME280;61787;42.022;23.078;2023-02-18T03:00:08;97654.53;;;1.09;81.83
20015;BME280;61787;42.022;23.078;2023-02-18T03:05:30;97651.88;;;0.07;86.63
20015;BME280;61787;42.022;23.078;2023-02-18T03:09:17;97659.97;;;0.00;88.32
20015;BME280;61787;42.022;23.078;2023-02-18T03:12:00;97666.03;;;0.01;88.72
20015;BME280;61787;42.022;23.078;2023-02-18T03:13:36;97664.69;;;-0.02;88.61
20015;BME280;61787;42.022;23.078;2023-02-18T03:14:55;97665.00;;;0.02;89.01
20015;BME280;61787;42.022;23.078;2023-02-18T03:17:22;97662.41;;;0.07;88.45
20015;BME280;61787;42.022;23.078;2023-02-18T03:20:03;97657.78;;;0.14;88.85
20015;BME280;61787;42.022;23.078;2023-02-18T03:21:18;97666.28;;;0.21;88.54
20015;BME280;61787;42.022;23.078;2023-02-18T03:22:26;97658.94;;;0.23;89.01
20015;BME280;61787;42.022;23.078;2023-02-18T03:23:37;97666.34;;;0.26;88.64
20015;BME280;61787;42.022;23.078;2023-02-18T03:24:45;97663.72;;;0.26;88.32
20015;BME280;61787;42.022;23.078;2023-02-18T03:25:47;97661.06;;;0.26;88.48
20015;BME280;61787;42.022;23.078;2023-02-18T03:26:53;97667.94;;;0.27;88.72
20015;BME280;61787;42.022;23.078;2023-02-18T03:28:00;97665.88;;;0.29;88.03
20015;BME280;61787;42.022;23.078;2023-02-18T03:29:06;97666.16;;;0.33;88.16
20015;BME280;61787;42.022;23.078;2023-02-18T03:30:15;97667.47;;;0.30;88.22
20015;BME280;61787;42.022;23.078;2023-02-18T03:31:20;97665.31;;;0.27;87.91
20015;BME280;61787;42.022;23.078;2023-02-18T03:32:24;97663.41;;;0.23;88.46
20015;BME280;61787;42.022;23.078;2023-02-18T03:33:31;97661.75;;;0.17;88.55
20015;BME280;61787;42.022;23.078;2023-02-18T03:34:39;97661.44;;;0.13;88.90
20015;BME280;61787;42.022;23.078;2023-02-18T03:35:42;97669.19;;;0.20;89.60
20015;BME280;61787;42.022;23.078;2023-02-18T03:36:46;97681.06;;;0.22;89.08
20015;BME280;61787;42.022;23.078;2023-02-18T03:37:52;97670.41;;;0.12;89.76
20015;BME280;61787;42.022;23.078;2023-02-18T03:39:10;97678.53;;;0.11;89.49
20015;BME280;61787;42.022;23.078;2023-02-18T03:40:14;97679.97;;;0.18;89.43
20015;BME280;61787;42.022;23.078;2023-02-18T03:41:17;97676.38;;;0.24;88.25
20015;BME280;61787;42.022;23.078;2023-02-18T03:42:19;97679.88;;;0.30;88.14
20015;BME280;61787;42.022;23.078;2023-02-18T03:43:25;97676.47;;;0.34;87.13
20015;BME280;61787;42.022;23.078;2023-02-18T03:44:26;97671.16;;;0.29;86.55
20015;BME280;61787;42.022;23.078;2023-02-18T03:45:28;97670.81;;;0.26;86.17
20015;BME280;61787;42.022;23.078;2023-02-18T03:46:30;97675.38;;;0.09;86.18
20015;BME280;61787;42.022;23.078;2023-02-18T03:47:32;97676.50;;;-0.04;87.19
20015;BME280;61787;42.022;23.078;2023-02-18T03:48:33;97673.00;;;-0.10;87.56
20015;BME280;61787;42.022;23.078;2023-02-18T03:49:35;97682.97;;;-0.33;89.08
20015;BME280;61787;42.022;23.078;2023-02-18T03:50:37;97678.50;;;-0.50;89.55
20015;BME280;61787;42.022;23.078;2023-02-18T03:51:38;97673.06;;;-0.60;90.50
20015;BME280;61787;42.022;23.078;2023-02-18T03:52:40;97675.31;;;-0.68;91.28
20015;BME280;61787;42.022;23.078;2023-02-18T03:53:41;97676.13;;;-0.68;92.34
20015;BME280;61787;42.022;23.078;2023-02-18T03:54:43;97677.66;;;-0.72;92.59
20015;BME280;61787;42.022;23.078;2023-02-18T03:55:45;97673.88;;;-0.76;93.28
20015;BME280;61787;42.022;23.078;2023-02-18T03:56:47;97669.09;;;-0.79;93.12
20015;BME280;61787;42.022;23.078;2023-02-18T03:57:49;97680.66;;;-0.80;94.35
20015;BME280;61787;42.022;23.078;2023-02-18T03:58:51;97678.59;;;-0.78;94.12
20015;BME280;61787;42.022;23.078;2023-02-18T03:59:53;97680.28;;;-0.72;93.95
20015;BME280;61787;42.022;23.078;2023-02-18T04:00:54;97684.56;;;-0.66;93.81
20015;BME280;61787;42.022;23.078;2023-02-18T04:01:56;97675.78;;;-0.55;93.57
20015;BME280;61787;42.022;23.078;2023-02-18T04:02:57;97674.41;;;-0.40;93.49
20015;BME280;61787;42.022;23.078;2023-02-18T04:03:59;97675.63;;;-0.31;92.97
20015;BME280;61787;42.022;23.078;2023-02-18T04:05:01;97676.09;;;-0.34;92.61
20015;BME280;61787;42.022;23.078;2023-02-18T04:06:02;97676.66;;;-0.32;92.27
20015;BME280;61787;42.022;23.078;2023-02-18T04:07:04;97681.28;;;-0.23;92.24
20015;BME280;61787;42.022;23.078;2023-02-18T04:08:06;97684.84;;;-0.12;91.97
20015;BME280;61787;42.022;23.078;2023-02-18T04:09:07;97687.56;;;-0.07;90.29
20015;BME280;61787;42.022;23.078;2023-02-18T04:10:10;97683.81;;;-0.11;88.74
20015;BME280;61787;42.022;23.078;2023-02-18T04:11:12;97689.00;;;-0.16;88.97
20015;BME280;61787;42.022;23.078;2023-02-18T04:12:13;97696.50;;;-0.25;88.70
20015;BME280;61787;42.022;23.078;2023-02-18T04:13:15;97693.06;;;-0.25;88.96
20015;BME280;61787;42.022;23.078;2023-02-18T04:14:20;97694.75;;;-0.19;88.59
20015;BME280;61787;42.022;23.078;2023-02-18T04:15:21;97692.53;;;-0.11;92.70
20015;BME280;61787;42.022;23.078;2023-02-18T04:16:23;97689.28;;;0.04;93.37
20015;BME280;61787;42.022;23.078;2023-02-18T04:17:25;97692.34;;;0.18;92.55
20015;BME280;61787;42.022;23.078;2023-02-18T04:18:26;97685.06;;;0.25;90.35
20015;BME280;61787;42.022;23.078;2023-02-18T04:19:28;97692.25;;;0.29;89.55
20015;BME280;61787;42.022;23.078;2023-02-18T04:20:30;97686.00;;;0.35;89.01
20015;BME280;61787;42.022;23.078;2023-02-18T04:21:32;97695.53;;;0.41;88.68
20015;BME280;61787;42.022;23.078;2023-02-18T04:22:34;97689.78;;;0.45;86.73
20015;BME280;61787;42.022;23.078;2023-02-18T04:23:35;97698.31;;;0.52;85.19
20015;BME280;61787;42.022;23.078;2023-02-18T04:24:37;97699.47;;;0.61;83.88
20015;BME280;61787;42.022;23.078;2023-02-18T04:25:39;97703.75;;;0.67;83.05
20015;BME280;61787;42.022;23.078;2023-02-18T04:26:40;97702.66;;;0.63;83.12
20015;BME280;61787;42.022;23.078;2023-02-18T04:27:42;97703.91;;;0.55;83.13
20015;BME280;61787;42.022;23.078;2023-02-18T04:28:44;97706.41;;;0.45;83.95
20015;BME280;61787;42.022;23.078;2023-02-18T04:29:45;97706.97;;;0.25;85.27
20015;BME280;61787;42.022;23.078;2023-02-18T04:30:47;97707.88;;;0.14;85.95
20015;BME280;61787;42.022;23.078;2023-02-18T04:31:49;97717.78;;;0.07;85.62
20015;BME280;61787;42.022;23.078;2023-02-18T04:32:50;97717.78;;;0.07;86.23
20015;BME280;61787;42.022;23.078;2023-02-18T04:33:52;97713.41;;;-0.04;85.61
20015;BME280;61787;42.022;23.078;2023-02-18T04:34:54;97712.16;;;-0.02;85.84
20015;BME280;61787;42.022;23.078;2023-02-18T04:35:55;97722.19;;;0.02;86.48
20015;BME280;61787;42.022;23.078;2023-02-18T04:36:57;97723.78;;;0.03;87.06
20015;BME280;61787;42.022;23.078;2023-02-18T04:37:58;97731.94;;;0.01;87.11
20015;BME280;61787;42.022;23.078;2023-02-18T04:39:00;97729.88;;;0.03;87.30
20015;BME280;61787;42.022;23.078;2023-02-18T04:40:02;97728.50;;;0.00;86.76
20015;BME280;61787;42.022;23.078;2023-02-18T04:41:04;97735.00;;;-0.07;87.16
20015;BME280;61787;42.022;23.078;2023-02-18T04:42:05;97729.72;;;-0.07;88.13
20015;BME280;61787;42.022;23.078;2023-02-18T04:43:09;97726.06;;;-0.06;87.83
20015;BME280;61787;42.022;23.078;2023-02-18T04:44:11;97724.22;;;-0.06;87.10
20015;BME280;61787;42.022;23.078;2023-02-18T04:45:12;97724.75;;;-0.04;86.85
20015;BME280;61787;42.022;23.078;2023-02-18T04:46:14;97728.25;;;0.02;87.34
20015;BME280;61787;42.022;23.078;2023-02-18T04:47:15;97726.34;;;-0.03;86.71
20015;BME280;61787;42.022;23.078;2023-02-18T04:48:17;97731.13;;;0.00;86.95
20015;BME280;61787;42.022;23.078;2023-02-18T04:49:19;97731.78;;;0.08;86.84
20015;BME280;61787;42.022;23.078;2023-02-18T04:50:21;97734.78;;;0.16;86.35
20015;BME280;61787;42.022;23.078;2023-02-18T04:51:23;97738.28;;;0.22;86.13
20015;BME280;61787;42.022;23.078;2023-02-18T04:52:25;97738.63;;;0.25;86.39
20015;BME280;61787;42.022;23.078;2023-02-18T04:53:26;97743.09;;;0.25;85.76
20015;BME280;61787;42.022;23.078;2023-02-18T04:54:28;97735.91;;;0.20;86.31
20015;BME280;61787;42.022;23.078;2023-02-18T04:55:29;97733.22;;;0.15;86.71
20015;BME280;61787;42.022;23.078;2023-02-18T04:56:31;97730.00;;;0.13;87.46
20015;BME280;61787;42.022;23.078;2023-02-18T04:57:33;97727.22;;;0.03;87.91
20015;BME280;61787;42.022;23.078;2023-02-18T04:58:34;97733.81;;;-0.16;88.46
20015;BME280;61787;42.022;23.078;2023-02-18T04:59:36;97732.06;;;-0.27;89.12
20015;BME280;61787;42.022;23.078;2023-02-18T05:00:38;97731.50;;;-0.29;90.13
20015;BME280;61787;42.022;23.078;2023-02-18T05:01:39;97731.41;;;-0.34;90.49
20015;BME280;61787;42.022;23.078;2023-02-18T05:02:41;97723.28;;;-0.50;91.02
20015;BME280;61787;42.022;23.078;2023-02-18T05:03:43;97735.16;;;-0.64;92.07
20015;BME280;61787;42.022;23.078;2023-02-18T05:04:46;97731.34;;;-0.73;92.29
20015;BME280;61787;42.022;23.078;2023-02-18T05:05:48;97737.69;;;-0.86;93.02
20015;BME280;61787;42.022;23.078;2023-02-18T05:06:49;97733.22;;;-0.85;94.04
20015;BME280;61787;42.022;23.078;2023-02-18T05:07:51;97735.38;;;-0.82;94.37
20015;BME280;61787;42.022;23.078;2023-02-18T05:08:53;97737.38;;;-0.89;93.83
20015;BME280;61787;42.022;23.078;2023-02-18T05:09:54;97732.25;;;-0.96;94.34
20015;BME280;61787;42.022;23.078;2023-02-18T05:10:56;97735.09;;;-0.97;93.95
20015;BME280;61787;42.022;23.078;2023-02-18T05:11:57;97735.09;;;-0.97;94.14
20015;BME280;61787;42.022;23.078;2023-02-18T05:12:59;97731.63;;;-0.86;94.38
20015;BME280;61787;42.022;23.078;2023-02-18T05:14:01;97733.88;;;-0.78;94.58
20015;BME280;61787;42.022;23.078;2023-02-18T05:15:03;97735.44;;;-0.77;93.88
20015;BME280;61787;42.022;23.078;2023-02-18T05:16:05;97739.16;;;-0.78;93.48
20015;BME280;61787;42.022;23.078;2023-02-18T05:17:07;97742.19;;;-0.69;93.26
20015;BME280;61787;42.022;23.078;2023-02-18T05:18:09;97740.44;;;-0.64;93.22
20015;BME280;61787;42.022;23.078;2023-02-18T05:19:15;97736.44;;;-0.66;92.73
20015;BME280;61787;42.022;23.078;2023-02-18T05:20:17;97733.25;;;-0.68;92.71
20015;BME280;61787;42.022;23.078;2023-02-18T05:21:18;97730.38;;;-0.67;93.35
20015;BME280;61787;42.022;23.078;2023-02-18T05:22:20;97734.38;;;-0.64;93.17
20015;BME280;61787;42.022;23.078;2023-02-18T05:23:22;97735.09;;;-0.69;93.13
20015;BME280;61787;42.022;23.078;2023-02-18T05:24:26;97734.50;;;-0.71;93.01
20015;BME280;61787;42.022;23.078;2023-02-18T05:25:27;97735.81;;;-0.57;92.91
20015;BME280;61787;42.022;23.078;2023-02-18T05:26:29;97736.28;;;-0.43;93.14
20015;BME280;61787;42.022;23.078;2023-02-18T05:27:30;97729.88;;;-0.30;91.57
20015;BME280;61787;42.022;23.078;2023-02-18T05:28:32;97729.72;;;-0.24;91.93
20015;BME280;61787;42.022;23.078;2023-02-18T05:29:34;97729.09;;;-0.14;91.23
20015;BME280;61787;42.022;23.078;2023-02-18T05:30:36;97731.63;;;-0.03;90.31
20015;BME280;61787;42.022;23.078;2023-02-18T05:31:37;97735.44;;;0.07;89.96
20015;BME280;61787;42.022;23.078;2023-02-18T05:32:39;97733.75;;;0.17;88.66
20015;BME280;61787;42.022;23.078;2023-02-18T05:33:41;97736.94;;;0.19;87.93
20015;BME280;61787;42.022;23.078;2023-02-18T05:34:42;97727.94;;;0.15;87.08
20015;BME280;61787;42.022;23.078;2023-02-18T05:35:44;97737.19;;;0.18;86.29
20015;BME280;61787;42.022;23.078;2023-02-18T05:36:46;97740.19;;;0.26;86.12
20015;BME280;61787;42.022;23.078;2023-02-18T05:37:47;97740.19;;;0.26;85.65
20015;BME280;61787;42.022;23.078;2023-02-18T05:38:49;97743.25;;;0.18;85.95
20015;BME280;61787;42.022;23.078;2023-02-18T05:39:51;97740.69;;;0.23;85.28
20015;BME280;61787;42.022;23.078;2023-02-18T05:40:54;97742.34;;;0.29;85.95
20015;BME280;61787;42.022;23.078;2023-02-18T05:41:56;97737.16;;;0.34;85.76
20015;BME280;61787;42.022;23.078;2023-02-18T05:42:57;97730.09;;;0.40;85.55
20015;BME280;61787;42.022;23.078;2023-02-18T05:43:59;97734.06;;;0.42;85.38
20015;BME280;61787;42.022;23.078;2023-02-18T05:45:19;97734.06;;;0.42;85.22
20015;BME280;61787;42.022;23.078;2023-02-18T05:46:21;97726.59;;;0.34;85.71
20015;BME280;61787;42.022;23.078;2023-02-18T05:47:23;97727.31;;;0.08;87.40
20015;BME280;61787;42.022;23.078;2023-02-18T05:48:24;97725.41;;;-0.13;88.74
20015;BME280;61787;42.022;23.078;2023-02-18T05:49:27;97727.81;;;-0.28;89.86
20015;BME280;61787;42.022;23.078;2023-02-18T05:50:29;97724.97;;;-0.44;90.24
20015;BME280;61787;42.022;23.078;2023-02-18T05:51:31;97720.19;;;-0.47;91.48
20015;BME280;61787;42.022;23.078;2023-02-18T05:52:32;97722.09;;;-0.42;91.64
20015;BME280;61787;42.022;23.078;2023-02-18T05:53:34;97717.13;;;-0.38;91.96
20015;BME280;61787;42.022;23.078;2023-02-18T05:54:36;97717.63;;;-0.41;91.68
20015;BME280;61787;42.022;23.078;2023-02-18T05:55:38;97718.16;;;-0.39;92.18
20015;BME280;61787;42.022;23.078;2023-02-18T05:56:40;97721.69;;;-0.34;91.74
20015;BME280;61787;42.022;23.078;2023-02-18T05:57:41;97734.63;;;-0.32;91.55
20015;BME280;61787;42.022;23.078;2023-02-18T05:58:43;97728.78;;;-0.34;91.49
20015;BME280;61787;42.022;23.078;2023-02-18T05:59:45;97726.06;;;-0.23;92.11
20015;BME280;61787;42.022;23.078;2023-02-18T06:00:46;97728.63;;;-0.11;91.86
20015;BME280;61787;42.022;23.078;2023-02-18T06:01:48;97735.63;;;0.00;91.05
20015;BME280;61787;42.022;23.078;2023-02-18T06:02:50;97735.78;;;0.10;90.90
20015;BME280;61787;42.022;23.078;2023-02-18T06:03:52;97741.19;;;0.20;91.04
20015;BME280;61787;42.022;23.078;2023-02-18T06:04:54;97744.50;;;0.32;90.11
20015;BME280;61787;42.022;23.078;2023-02-18T06:05:55;97742.56;;;0.45;89.16
20015;BME280;61787;42.022;23.078;2023-02-18T06:06:57;97742.63;;;0.50;87.78
20015;BME280;61787;42.022;23.078;2023-02-18T06:07:58;97739.75;;;0.51;87.06
20015;BME280;61787;42.022;23.078;2023-02-18T06:09:00;97734.53;;;0.56;86.73
20015;BME280;61787;42.022;23.078;2023-02-18T06:10:03;97742.00;;;0.64;87.06
20015;BME280;61787;42.022;23.078;2023-02-18T06:11:05;97738.91;;;0.72;86.43
20015;BME280;61787;42.022;23.078;2023-02-18T06:12:07;97741.94;;;0.81;86.62
20015;BME280;61787;42.022;23.078;2023-02-18T06:13:08;97734.94;;;0.92;85.65